West Greene, Alabama
Current Conditions -  °F | °C
As of 9:55 PM on Tuesday 25 Nov 2014 (Local Time) from KDYA Reporting Station
Clear Clear  
Wind Chill: 43°   Ceiling: Unl
Heat Index: 46°   Visibility: 10mi
Dew Point: 28°   Wind: 7mph
Humidity: 48%   Direction: 310°NW
Pressure: 30.17"   Gusts: NA
Location:  32.92°N, 88.09°W
Report Text: KDYA 260355Z AUTO 31006KT 10SM CLR 08/M02 A3017 RMK AO2 T00801023
Loading
Personal Weather Stations






























Interactive Weather Map New forecast layout! Learn more

10-Day Weather Forecast

Advertisements
Track Severe Weather on mobile